Terminal Aerodrome Forecast
Issued by NWS Greer, SC

Home | Current Version | Previous Version | Text Only | Print | Product List | Glossary On
Versions: 1 2 3 4 5 6 7 8 9 10 11 12 13 14 15 16 17 18 19 20 21 22 23 24 25 26 27 28
000
FTUS42 KGSP 261120
TAFGSP
TAF
KGSP 261120Z 2612/2712 03004KT P6SM BKN050
     FM261700 07005KT P6SM VCSH OVC040
     FM262000 07005KT P6SM -SHRA OVC025
      TEMPO 2620/2624 3SM SHRA OVC020
     FM270000 03004KT 5SM -SHRA OVC012
     FM270400 23005KT P6SM OVC008=

USA.gov is the U.S. government's official web portal to all federal, state and local government web resources and services.